sensor_id;sensor_type;location;lat;lon;timestamp;P1;durP1;ratioP1;P2;durP2;ratioP2
36789;SDS011;22740;52.182;8.780;2023-02-25T00:01:52;19.90;;;3.25;;
36789;SDS011;22740;52.182;8.780;2023-02-25T00:08:04;15.52;;;3.17;;
36789;SDS011;22740;52.182;8.780;2023-02-25T00:14:08;18.73;;;2.60;;
36789;SDS011;22740;52.182;8.780;2023-02-25T00:20:10;22.10;;;3.92;;
36789;SDS011;22740;52.182;8.780;2023-02-25T00:26:15;17.50;;;2.60;;
36789;SDS011;22740;52.182;8.780;2023-02-25T00:32:18;21.95;;;3.28;;
36789;SDS011;22740;52.182;8.780;2023-02-25T00:38:21;14.55;;;2.60;;
36789;SDS011;22740;52.182;8.780;2023-02-25T00:44:23;19.10;;;2.70;;
36789;SDS011;22740;52.182;8.780;2023-02-25T00:50:28;18.90;;;2.60;;
36789;SDS011;22740;52.182;8.780;2023-02-25T00:56:31;18.77;;;2.42;;
36789;SDS011;22740;52.182;8.780;2023-02-25T01:02:34;16.50;;;2.22;;
36789;SDS011;22740;52.182;8.780;2023-02-25T01:08:36;15.30;;;2.70;;
36789;SDS011;22740;52.182;8.780;2023-02-25T01:14:39;20.20;;;2.15;;
36789;SDS011;22740;52.182;8.780;2023-02-25T01:20:42;15.35;;;2.63;;
36789;SDS011;22740;52.182;8.780;2023-02-25T01:26:45;25.38;;;3.22;;
36789;SDS011;22740;52.182;8.780;2023-02-25T01:32:48;14.60;;;2.43;;
36789;SDS011;22740;52.182;8.780;2023-02-25T01:38:50;17.67;;;2.85;;
36789;SDS011;22740;52.182;8.780;2023-02-25T01:51:18;17.55;;;2.65;;
36789;SDS011;22740;52.182;8.780;2023-02-25T01:57:20;15.13;;;2.75;;
36789;SDS011;22740;52.182;8.780;2023-02-25T02:03:24;13.13;;;2.33;;
36789;SDS011;22740;52.182;8.780;2023-02-25T02:09:28;18.20;;;2.38;;
36789;SDS011;22740;52.182;8.780;2023-02-25T02:15:32;16.10;;;2.33;;
36789;SDS011;22740;52.182;8.780;2023-02-25T02:34:33;24.13;;;3.00;;
36789;SDS011;22740;52.182;8.780;2023-02-25T02:47:33;15.65;;;2.00;;
36789;SDS011;22740;52.182;8.780;2023-02-25T02:53:42;13.30;;;2.58;;
36789;SDS011;22740;52.182;8.780;2023-02-25T02:59:53;20.02;;;2.55;;
36789;SDS011;22740;52.182;8.780;2023-02-25T03:06:03;18.85;;;2.28;;
36789;SDS011;22740;52.182;8.780;2023-02-25T03:12:09;16.17;;;2.05;;
36789;SDS011;22740;52.182;8.780;2023-02-25T03:24:49;10.30;;;1.90;;
36789;SDS011;22740;52.182;8.780;2023-02-25T03:31:08;13.15;;;1.83;;
36789;SDS011;22740;52.182;8.780;2023-02-25T03:37:20;11.10;;;2.08;;
36789;SDS011;22740;52.182;8.780;2023-02-25T03:43:25;8.70;;;1.80;;
36789;SDS011;22740;52.182;8.780;2023-02-25T03:49:36;10.52;;;1.55;;
36789;SDS011;22740;52.182;8.780;2023-02-25T03:55:48;10.43;;;1.40;;
36789;SDS011;22740;52.182;8.780;2023-02-25T04:01:52;9.73;;;1.63;;
36789;SDS011;22740;52.182;8.780;2023-02-25T04:07:57;7.32;;;1.50;;
36789;SDS011;22740;52.182;8.780;2023-02-25T04:13:59;16.60;;;2.30;;
36789;SDS011;22740;52.182;8.780;2023-02-25T04:20:01;12.07;;;2.10;;
36789;SDS011;22740;52.182;8.780;2023-02-25T04:26:05;10.97;;;2.00;;
36789;SDS011;22740;52.182;8.780;2023-02-25T04:32:07;9.93;;;1.45;;
36789;SDS011;22740;52.182;8.780;2023-02-25T04:38:10;9.18;;;1.88;;
36789;SDS011;22740;52.182;8.780;2023-02-25T04:44:12;10.75;;;2.15;;
36789;SDS011;22740;52.182;8.780;2023-02-25T04:50:14;5.50;;;0.80;;
36789;SDS011;22740;52.182;8.780;2023-02-25T04:56:17;5.40;;;0.80;;
36789;SDS011;22740;52.182;8.780;2023-02-25T05:02:20;8.55;;;1.08;;
36789;SDS011;22740;52.182;8.780;2023-02-25T05:08:23;6.28;;;1.77;;
36789;SDS011;22740;52.182;8.780;2023-02-25T05:14:25;5.63;;;1.10;;
36789;SDS011;22740;52.182;8.780;2023-02-25T05:20:28;14.27;;;2.45;;
36789;SDS011;22740;52.182;8.780;2023-02-25T05:26:31;5.72;;;0.93;;
36789;SDS011;22740;52.182;8.780;2023-02-25T05:32:33;5.60;;;1.27;;
36789;SDS011;22740;52.182;8.780;2023-02-25T05:38:36;4.68;;;1.05;;
36789;SDS011;22740;52.182;8.780;2023-02-25T05:44:39;5.95;;;0.90;;
36789;SDS011;22740;52.182;8.780;2023-02-25T05:50:41;4.82;;;1.10;;
36789;SDS011;22740;52.182;8.780;2023-02-25T05:56:44;7.28;;;1.85;;
36789;SDS011;22740;52.182;8.780;2023-02-25T06:02:46;6.72;;;1.20;;
36789;SDS011;22740;52.182;8.780;2023-02-25T06:08:49;6.65;;;1.77;;
36789;SDS011;22740;52.182;8.780;2023-02-25T06:14:51;8.75;;;1.63;;
36789;SDS011;22740;52.182;8.780;2023-02-25T06:20:54;8.82;;;1.80;;
36789;SDS011;22740;52.182;8.780;2023-02-25T06:26:56;3.90;;;1.50;;
36789;SDS011;22740;52.182;8.780;2023-02-25T06:32:58;8.55;;;1.70;;
36789;SDS011;22740;52.182;8.780;2023-02-25T06:39:00;5.72;;;1.60;;
36789;SDS011;22740;52.182;8.780;2023-02-25T06:45:03;7.82;;;1.80;;
36789;SDS011;22740;52.182;8.780;2023-02-25T06:51:06;5.40;;;1.58;;
36789;SDS011;22740;52.182;8.780;2023-02-25T06:57:10;8.38;;;1.88;;
36789;SDS011;22740;52.182;8.780;2023-02-25T07:03:14;6.63;;;2.73;;
36789;SDS011;22740;52.182;8.780;2023-02-25T07:09:18;5.95;;;1.67;;
36789;SDS011;22740;52.182;8.780;2023-02-25T07:15:21;6.32;;;2.05;;
36789;SDS011;22740;52.182;8.780;2023-02-25T07:21:23;6.03;;;1.40;;
36789;SDS011;22740;52.182;8.780;2023-02-25T07:27:29;8.50;;;1.50;;
36789;SDS011;22740;52.182;8.780;2023-02-25T07:33:31;4.57;;;0.90;;
36789;SDS011;22740;52.182;8.780;2023-02-25T07:39:34;5.85;;;1.45;;
36789;SDS011;22740;52.182;8.780;2023-02-25T07:45:37;4.28;;;0.88;;
36789;SDS011;22740;52.182;8.780;2023-02-25T07:51:39;4.85;;;1.00;;
36789;SDS011;22740;52.182;8.780;2023-02-25T07:57:41;4.53;;;0.90;;
36789;SDS011;22740;52.182;8.780;2023-02-25T08:03:43;4.28;;;0.70;;
36789;SDS011;22740;52.182;8.780;2023-02-25T08:09:48;4.95;;;0.88;;
36789;SDS011;22740;52.182;8.780;2023-02-25T08:15:50;5.93;;;0.90;;
36789;SDS011;22740;52.182;8.780;2023-02-25T08:21:52;6.03;;;1.10;;
36789;SDS011;22740;52.182;8.780;2023-02-25T08:27:55;4.68;;;0.70;;
36789;SDS011;22740;52.182;8.780;2023-02-25T08:33:58;8.18;;;0.95;;
36789;SDS011;22740;52.182;8.780;2023-02-25T08:40:00;3.25;;;0.95;;
36789;SDS011;22740;52.182;8.780;2023-02-25T08:46:03;9.55;;;0.88;;
36789;SDS011;22740;52.182;8.780;2023-02-25T08:52:09;6.22;;;0.80;;
36789;SDS011;22740;52.182;8.780;2023-02-25T08:58:12;4.07;;;0.65;;
36789;SDS011;22740;52.182;8.780;2023-02-25T09:04:15;7.15;;;1.30;;
36789;SDS011;22740;52.182;8.780;2023-02-25T09:10:19;4.30;;;1.98;;
36789;SDS011;22740;52.182;8.780;2023-02-25T09:16:23;6.07;;;1.48;;
36789;SDS011;22740;52.182;8.780;2023-02-25T09:22:29;9.80;;;1.50;;
36789;SDS011;22740;52.182;8.780;2023-02-25T09:28:33;11.02;;;1.98;;
36789;SDS011;22740;52.182;8.780;2023-02-25T09:34:35;4.20;;;0.95;;
36789;SDS011;22740;52.182;8.780;2023-02-25T09:40:38;5.28;;;0.90;;
36789;SDS011;22740;52.182;8.780;2023-02-25T09:47:05;7.28;;;0.90;;
36789;SDS011;22740;52.182;8.780;2023-02-25T09:53:16;6.10;;;0.88;;
36789;SDS011;22740;52.182;8.780;2023-02-25T09:59:24;7.47;;;1.15;;
36789;SDS011;22740;52.182;8.780;2023-02-25T10:11:50;5.25;;;0.77;;
36789;SDS011;22740;52.182;8.780;2023-02-25T10:30:45;6.47;;;0.82;;
36789;SDS011;22740;52.182;8.780;2023-02-25T10:37:32;5.15;;;1.42;;
36789;SDS011;22740;52.182;8.780;2023-02-25T10:43:36;5.35;;;1.13;;
36789;SDS011;22740;52.182;8.780;2023-02-25T10:49:38;4.72;;;0.60;;
36789;SDS011;22740;52.182;8.780;2023-02-25T11:01:54;2.78;;;0.70;;
36789;SDS011;22740;52.182;8.780;2023-02-25T11:07:56;7.22;;;0.85;;
36789;SDS011;22740;52.182;8.780;2023-02-25T11:14:00;2.58;;;0.65;;
36789;SDS011;22740;52.182;8.780;2023-02-25T11:20:12;4.43;;;0.70;;
36789;SDS011;22740;52.182;8.780;2023-02-25T11:32:34;2.88;;;0.50;;
36789;SDS011;22740;52.182;8.780;2023-02-25T11:38:43;3.08;;;0.50;;
36789;SDS011;22740;52.182;8.780;2023-02-25T11:44:46;3.67;;;0.70;;
36789;SDS011;22740;52.182;8.780;2023-02-25T11:57:13;3.10;;;0.50;;
36789;SDS011;22740;52.182;8.780;2023-02-25T12:10:25;3.78;;;0.80;;
36789;SDS011;22740;52.182;8.780;2023-02-25T12:17:26;2.28;;;0.57;;
36789;SDS011;22740;52.182;8.780;2023-02-25T12:29:26;2.88;;;0.77;;
36789;SDS011;22740;52.182;8.780;2023-02-25T12:36:05;5.20;;;0.43;;
36789;SDS011;22740;52.182;8.780;2023-02-25T12:42:19;2.25;;;0.43;;
36789;SDS011;22740;52.182;8.780;2023-02-25T12:48:36;1.45;;;0.32;;
36789;SDS011;22740;52.182;8.780;2023-02-25T12:55:18;3.15;;;0.70;;
36789;SDS011;22740;52.182;8.780;2023-02-25T13:01:29;3.42;;;0.52;;
36789;SDS011;22740;52.182;8.780;2023-02-25T13:14:08;2.30;;;0.68;;
36789;SDS011;22740;52.182;8.780;2023-02-25T13:33:29;3.75;;;0.60;;
36789;SDS011;22740;52.182;8.780;2023-02-25T13:40:02;1.55;;;0.45;;
36789;SDS011;22740;52.182;8.780;2023-02-25T13:53:05;2.53;;;0.70;;
36789;SDS011;22740;52.182;8.780;2023-02-25T14:12:36;2.30;;;0.77;;
36789;SDS011;22740;52.182;8.780;2023-02-25T14:32:04;2.85;;;0.75;;
36789;SDS011;22740;52.182;8.780;2023-02-25T14:38:36;1.17;;;0.35;;
36789;SDS011;22740;52.182;8.780;2023-02-25T14:44:58;4.03;;;0.85;;
36789;SDS011;22740;52.182;8.780;2023-02-25T15:23:13;3.97;;;0.93;;
36789;SDS011;22740;52.182;8.780;2023-02-25T15:30:03;3.58;;;0.95;;
36789;SDS011;22740;52.182;8.780;2023-02-25T15:41:56;3.85;;;0.88;;
36789;SDS011;22740;52.182;8.780;2023-02-25T15:54:08;6.28;;;1.00;;
36789;SDS011;22740;52.182;8.780;2023-02-25T16:00:59;5.40;;;1.03;;
36789;SDS011;22740;52.182;8.780;2023-02-25T16:06:47;5.47;;;0.90;;
36789;SDS011;22740;52.182;8.780;2023-02-25T16:12:51;4.43;;;0.88;;
36789;SDS011;22740;52.182;8.780;2023-02-25T16:18:56;2.08;;;0.90;;
36789;SDS011;22740;52.182;8.780;2023-02-25T16:24:58;4.45;;;1.15;;
36789;SDS011;22740;52.182;8.780;2023-02-25T16:31:15;6.38;;;1.90;;
36789;SDS011;22740;52.182;8.780;2023-02-25T16:43:35;4.63;;;0.80;;
36789;SDS011;22740;52.182;8.780;2023-02-25T16:55:46;3.13;;;1.10;;
36789;SDS011;22740;52.182;8.780;2023-02-25T17:01:55;4.35;;;1.33;;
36789;SDS011;22740;52.182;8.780;2023-02-25T17:08:00;8.20;;;2.13;;
36789;SDS011;22740;52.182;8.780;2023-02-25T17:14:05;5.63;;;2.25;;
36789;SDS011;22740;52.182;8.780;2023-02-25T17:20:12;2.65;;;1.20;;
36789;SDS011;22740;52.182;8.780;2023-02-25T17:26:17;3.95;;;1.50;;
36789;SDS011;22740;52.182;8.780;2023-02-25T17:32:25;5.40;;;1.47;;
36789;SDS011;22740;52.182;8.780;2023-02-25T17:38:29;3.42;;;1.27;;
36789;SDS011;22740;52.182;8.780;2023-02-25T17:50:39;4.53;;;1.30;;
36789;SDS011;22740;52.182;8.780;2023-02-25T17:56:41;12.52;;;2.85;;
36789;SDS011;22740;52.182;8.780;2023-02-25T18:02:46;6.28;;;1.65;;
36789;SDS011;22740;52.182;8.780;2023-02-25T18:09:25;9.50;;;1.92;;
36789;SDS011;22740;52.182;8.780;2023-02-25T18:15:37;6.60;;;2.40;;
36789;SDS011;22740;52.182;8.780;2023-02-25T18:21:40;9.32;;;2.53;;
36789;SDS011;22740;52.182;8.780;2023-02-25T18:27:43;5.10;;;1.57;;
36789;SDS011;22740;52.182;8.780;2023-02-25T18:33:45;6.95;;;2.47;;
36789;SDS011;22740;52.182;8.780;2023-02-25T18:39:47;8.18;;;1.85;;
36789;SDS011;22740;52.182;8.780;2023-02-25T18:45:51;6.95;;;1.60;;
36789;SDS011;22740;52.182;8.780;2023-02-25T18:51:53;5.38;;;1.85;;
36789;SDS011;22740;52.182;8.780;2023-02-25T18:57:55;7.25;;;1.40;;
36789;SDS011;22740;52.182;8.780;2023-02-25T19:03:58;6.35;;;1.52;;
36789;SDS011;22740;52.182;8.780;2023-02-25T19:10:00;5.55;;;1.23;;
36789;SDS011;22740;52.182;8.780;2023-02-25T19:16:02;7.25;;;1.92;;
36789;SDS011;22740;52.182;8.780;2023-02-25T19:22:05;5.68;;;1.45;;
36789;SDS011;22740;52.182;8.780;2023-02-25T19:28:07;3.67;;;1.38;;
36789;SDS011;22740;52.182;8.780;2023-02-25T19:34:09;4.82;;;1.10;;
36789;SDS011;22740;52.182;8.780;2023-02-25T19:40:12;6.88;;;1.85;;
36789;SDS011;22740;52.182;8.780;2023-02-25T19:46:15;2.58;;;1.05;;
36789;SDS011;22740;52.182;8.780;2023-02-25T19:52:18;5.38;;;1.10;;
36789;SDS011;22740;52.182;8.780;2023-02-25T19:58:20;5.57;;;0.98;;
36789;SDS011;22740;52.182;8.780;2023-02-25T20:04:21;6.03;;;0.90;;
36789;SDS011;22740;52.182;8.780;2023-02-25T20:10:23;3.83;;;0.95;;
36789;SDS011;22740;52.182;8.780;2023-02-25T20:16:25;1.92;;;0.98;;
36789;SDS011;22740;52.182;8.780;2023-02-25T20:22:27;4.57;;;1.35;;
36789;SDS011;22740;52.182;8.780;2023-02-25T20:28:29;3.75;;;1.40;;
36789;SDS011;22740;52.182;8.780;2023-02-25T20:34:31;4.20;;;1.52;;
36789;SDS011;22740;52.182;8.780;2023-02-25T20:40:34;5.97;;;2.10;;
36789;SDS011;22740;52.182;8.780;2023-02-25T20:46:35;15.55;;;4.60;;
36789;SDS011;22740;52.182;8.780;2023-02-25T20:52:38;11.80;;;4.72;;
36789;SDS011;22740;52.182;8.780;2023-02-25T20:58:40;24.08;;;6.95;;
36789;SDS011;22740;52.182;8.780;2023-02-25T21:04:42;14.63;;;3.75;;
36789;SDS011;22740;52.182;8.780;2023-02-25T21:10:44;4.88;;;2.30;;
36789;SDS011;22740;52.182;8.780;2023-02-25T21:16:47;4.05;;;1.90;;
36789;SDS011;22740;52.182;8.780;2023-02-25T21:22:54;7.07;;;2.20;;
36789;SDS011;22740;52.182;8.780;2023-02-25T21:28:56;4.93;;;1.63;;
36789;SDS011;22740;52.182;8.780;2023-02-25T21:34:58;2.92;;;1.35;;
36789;SDS011;22740;52.182;8.780;2023-02-25T21:41:04;5.70;;;1.33;;
36789;SDS011;22740;52.182;8.780;2023-02-25T21:47:06;4.38;;;1.90;;
36789;SDS011;22740;52.182;8.780;2023-02-25T21:53:08;3.42;;;1.55;;
36789;SDS011;22740;52.182;8.780;2023-02-25T21:59:10;3.17;;;1.35;;
36789;SDS011;22740;52.182;8.780;2023-02-25T22:05:12;7.75;;;1.40;;
36789;SDS011;22740;52.182;8.780;2023-02-25T22:11:18;4.35;;;1.48;;
36789;SDS011;22740;52.182;8.780;2023-02-25T22:17:22;5.10;;;1.23;;
36789;SDS011;22740;52.182;8.780;2023-02-25T22:23:23;4.50;;;1.58;;
36789;SDS011;22740;52.182;8.780;2023-02-25T22:29:25;5.47;;;1.50;;
36789;SDS011;22740;52.182;8.780;2023-02-25T22:35:27;4.30;;;1.52;;
36789;SDS011;22740;52.182;8.780;2023-02-25T22:41:29;2.85;;;1.45;;
36789;SDS011;22740;52.182;8.780;2023-02-25T22:47:31;4.70;;;1.50;;
36789;SDS011;22740;52.182;8.780;2023-02-25T22:53:33;4.05;;;1.60;;
36789;SDS011;22740;52.182;8.780;2023-02-25T22:59:35;4.22;;;1.58;;
36789;SDS011;22740;52.182;8.780;2023-02-25T23:05:37;3.80;;;1.48;;
36789;SDS011;22740;52.182;8.780;2023-02-25T23:11:40;4.60;;;1.60;;
36789;SDS011;22740;52.182;8.780;2023-02-25T23:17:43;8.77;;;1.60;;
36789;SDS011;22740;52.182;8.780;2023-02-25T23:23:50;3.90;;;1.55;;
36789;SDS011;22740;52.182;8.780;2023-02-25T23:29:53;3.05;;;1.48;;
36789;SDS011;22740;52.182;8.780;2023-02-25T23:35:56;4.15;;;1.63;;
36789;SDS011;22740;52.182;8.780;2023-02-25T23:41:58;3.17;;;1.63;;
36789;SDS011;22740;52.182;8.780;2023-02-25T23:48:00;4.00;;;1.63;;
36789;SDS011;22740;52.182;8.780;2023-02-25T23:54:04;5.65;;;1.45;;
